EXS2KC EGCC-LEMH
Flight info
| Callsign | EXS2KC |
|---|---|
| Flight time | N/A |
| Altitude | 37000 |
| Route | SANBA N859 HON UN859 SOPIL DCT BALAN DCT EVPOK DCT NARAK DCT GAI DCT LOMRA DCT ROCAN DCT GEANT DCT GIR DCT SALON DCT SULID N727 SARGO |
| Aircraft | B738/M-SDE2E3FGHIRWXY/LB1 |
Departure
| Time | 2026-05-06 11:32 |
|---|---|
| Airport | Manchester Airport (EGCC) |
Arrival
| Time | N/A |
|---|---|
| Airport | Menorca Airport (LEMH) |
| Time | Latitude | Longitude | Altitude | Speed | Heading |
|---|---|---|---|---|---|
| 2026-05-06 11:06 | 53.36049 | -2.27140 | 254 ft | 0 kts | 71° |
| 2026-05-06 11:20 | 53.36043 | -2.27169 | 254 ft | 4 kts | 71° |
| 2026-05-06 11:20 | 53.36036 | -2.27203 | 254 ft | 3 kts | 70° |
| 2026-05-06 11:20 | 53.36024 | -2.27236 | 254 ft | 1 kts | 48° |
| 2026-05-06 11:21 | 53.36013 | -2.27266 | 254 ft | 4 kts | 85° |
| 2026-05-06 11:21 | 53.36012 | -2.27280 | 254 ft | 4 kts | 90° |
| 2026-05-06 11:21 | 53.36006 | -2.27243 | 254 ft | 4 kts | 130° |
| 2026-05-06 11:21 | 53.35985 | -2.27240 | 254 ft | 4 kts | 179° |
| 2026-05-06 11:22 | 53.35960 | -2.27239 | 254 ft | 2 kts | 179° |
| 2026-05-06 11:22 | 53.35937 | -2.27237 | 254 ft | 4 kts | 172° |
| 2026-05-06 11:22 | 53.35932 | -2.27235 | 254 ft | 0 kts | 172° |
| 2026-05-06 11:24 | 53.35922 | -2.27233 | 254 ft | 3 kts | 172° |
| 2026-05-06 11:24 | 53.35891 | -2.27225 | 254 ft | 6 kts | 172° |
| 2026-05-06 11:24 | 53.35845 | -2.27223 | 254 ft | 7 kts | 201° |
| 2026-05-06 11:25 | 53.35811 | -2.27275 | 254 ft | 7 kts | 229° |
| 2026-05-06 11:25 | 53.35779 | -2.27340 | 254 ft | 8 kts | 231° |
| 2026-05-06 11:25 | 53.35741 | -2.27417 | 254 ft | 9 kts | 231° |
| 2026-05-06 11:25 | 53.35697 | -2.27507 | 250 ft | 13 kts | 231° |
| 2026-05-06 11:26 | 53.35623 | -2.27651 | 243 ft | 18 kts | 224° |
| 2026-05-06 11:26 | 53.35522 | -2.27812 | 237 ft | 22 kts | 223° |
| 2026-05-06 11:26 | 53.35414 | -2.27989 | 241 ft | 23 kts | 224° |
| 2026-05-06 11:26 | 53.35302 | -2.28171 | 235 ft | 23 kts | 224° |
| 2026-05-06 11:27 | 53.35199 | -2.28367 | 229 ft | 22 kts | 232° |
| 2026-05-06 11:27 | 53.35099 | -2.28576 | 228 ft | 23 kts | 231° |
| 2026-05-06 11:27 | 53.34992 | -2.28781 | 225 ft | 24 kts | 226° |
| 2026-05-06 11:27 | 53.34894 | -2.28952 | 222 ft | 19 kts | 226° |
| 2026-05-06 11:28 | 53.34803 | -2.29114 | 216 ft | 20 kts | 232° |
| 2026-05-06 11:28 | 53.34722 | -2.29285 | 215 ft | 15 kts | 226° |
| 2026-05-06 11:28 | 53.34682 | -2.29327 | 212 ft | 0 kts | 200° |
| 2026-05-06 11:30 | 53.34666 | -2.29335 | 210 ft | 6 kts | 195° |
| 2026-05-06 11:30 | 53.34607 | -2.29341 | 212 ft | 10 kts | 172° |
| 2026-05-06 11:30 | 53.34546 | -2.29290 | 217 ft | 10 kts | 134° |
| 2026-05-06 11:30 | 53.34550 | -2.29202 | 217 ft | 0 kts | 50° |
| 2026-05-06 11:31 | 53.34611 | -2.29077 | 213 ft | 43 kts | 51° |
| 2026-05-06 11:31 | 53.34944 | -2.28384 | 232 ft | 108 kts | 51° |
| 2026-05-06 11:32 | 53.35533 | -2.27161 | 307 ft | 155 kts | 50° |
| 2026-05-06 11:32 | 53.36220 | -2.25729 | 943 ft | 162 kts | 51° |
| 2026-05-06 11:32 | 53.36915 | -2.24274 | 1838 ft | 155 kts | 52° |
| 2026-05-06 11:32 | 53.37528 | -2.22771 | 2548 ft | 163 kts | 66° |
| 2026-05-06 11:33 | 53.37673 | -2.20751 | 2888 ft | 191 kts | 102° |
| 2026-05-06 11:33 | 53.36926 | -2.18747 | 3130 ft | 222 kts | 139° |
| 2026-05-06 11:33 | 53.35563 | -2.17292 | 3434 ft | 244 kts | 150° |
| 2026-05-06 11:33 | 53.33833 | -2.16663 | 3827 ft | 269 kts | 181° |
| 2026-05-06 11:34 | 53.31997 | -2.17044 | 4667 ft | 271 kts | 186° |
| 2026-05-06 11:34 | 53.30088 | -2.17399 | 4978 ft | 270 kts | 185° |
| 2026-05-06 11:34 | 53.28201 | -2.17711 | 4990 ft | 275 kts | 185° |
| 2026-05-06 11:34 | 53.26302 | -2.18015 | 5304 ft | 281 kts | 185° |
| 2026-05-06 11:35 | 53.24355 | -2.18323 | 6148 ft | 282 kts | 185° |
| 2026-05-06 11:35 | 53.22389 | -2.18634 | 6937 ft | 286 kts | 186° |
| 2026-05-06 11:35 | 53.20399 | -2.18948 | 7706 ft | 288 kts | 186° |
| 2026-05-06 11:35 | 53.18401 | -2.19263 | 8513 ft | 289 kts | 186° |
| 2026-05-06 11:36 | 53.16388 | -2.19580 | 9338 ft | 291 kts | 186° |
| 2026-05-06 11:36 | 53.14363 | -2.19899 | 10099 ft | 295 kts | 186° |
| 2026-05-06 11:36 | 53.12276 | -2.20225 | 10500 ft | 312 kts | 186° |
| 2026-05-06 11:36 | 53.10037 | -2.20574 | 10686 ft | 333 kts | 186° |
| 2026-05-06 11:37 | 53.07688 | -2.20937 | 11185 ft | 343 kts | 186° |
| 2026-05-06 11:37 | 53.05292 | -2.21307 | 11892 ft | 347 kts | 187° |
| 2026-05-06 11:37 | 53.02879 | -2.21618 | 12650 ft | 350 kts | 182° |
| 2026-05-06 11:37 | 53.00447 | -2.21169 | 13399 ft | 355 kts | 168° |
| 2026-05-06 11:38 | 52.98098 | -2.19809 | 14114 ft | 361 kts | 155° |
| 2026-05-06 11:38 | 52.95845 | -2.17912 | 14797 ft | 365 kts | 153° |
| 2026-05-06 11:38 | 52.93591 | -2.15926 | 15518 ft | 368 kts | 153° |
| 2026-05-06 11:38 | 52.91323 | -2.13911 | 16237 ft | 372 kts | 153° |
| 2026-05-06 11:39 | 52.89031 | -2.11886 | 16941 ft | 376 kts | 153° |
| 2026-05-06 11:39 | 52.86706 | -2.09849 | 17639 ft | 380 kts | 154° |
| 2026-05-06 11:39 | 52.84356 | -2.07805 | 18343 ft | 383 kts | 154° |
| 2026-05-06 11:39 | 52.81988 | -2.05756 | 18940 ft | 387 kts | 154° |
| 2026-05-06 11:40 | 52.79591 | -2.03691 | 19567 ft | 389 kts | 154° |
| 2026-05-06 11:40 | 52.77214 | -2.01649 | 20189 ft | 392 kts | 154° |
| 2026-05-06 11:40 | 52.74785 | -1.99566 | 20798 ft | 394 kts | 154° |
| 2026-05-06 11:40 | 52.72348 | -1.97478 | 21416 ft | 397 kts | 154° |
| 2026-05-06 11:41 | 52.69883 | -1.95371 | 21993 ft | 400 kts | 154° |
| 2026-05-06 11:41 | 52.67401 | -1.93251 | 22562 ft | 404 kts | 154° |
| 2026-05-06 11:41 | 52.64898 | -1.91115 | 23144 ft | 407 kts | 155° |
| 2026-05-06 11:41 | 52.62376 | -1.88967 | 23684 ft | 410 kts | 155° |
| 2026-05-06 11:42 | 52.59836 | -1.86805 | 24150 ft | 413 kts | 155° |
| 2026-05-06 11:42 | 52.57283 | -1.84636 | 24615 ft | 415 kts | 155° |
| 2026-05-06 11:42 | 52.54707 | -1.82449 | 25073 ft | 417 kts | 155° |
| 2026-05-06 11:42 | 52.52119 | -1.80255 | 25516 ft | 420 kts | 155° |
| 2026-05-06 11:43 | 52.49518 | -1.78053 | 25944 ft | 422 kts | 155° |
| 2026-05-06 11:43 | 52.46896 | -1.75837 | 26373 ft | 425 kts | 155° |
| 2026-05-06 11:43 | 52.44263 | -1.73613 | 26789 ft | 428 kts | 155° |
| 2026-05-06 11:44 | 52.38942 | -1.69128 | 27591 ft | 433 kts | 155° |
| 2026-05-06 11:44 | 52.36249 | -1.66876 | 27987 ft | 435 kts | 156° |
| 2026-05-06 11:44 | 52.33457 | -1.64999 | 28359 ft | 435 kts | 163° |
| 2026-05-06 11:44 | 52.30563 | -1.63479 | 28746 ft | 437 kts | 165° |
| 2026-05-06 11:45 | 52.27651 | -1.62025 | 29094 ft | 439 kts | 165° |
| 2026-05-06 11:45 | 52.24720 | -1.60569 | 29429 ft | 442 kts | 165° |
| 2026-05-06 11:45 | 52.21781 | -1.59092 | 29761 ft | 445 kts | 165° |
| 2026-05-06 11:45 | 52.18820 | -1.57583 | 30104 ft | 447 kts | 164° |
| 2026-05-06 11:46 | 52.16551 | -1.56416 | 30326 ft | 449 kts | 164° |